Terminal Aerodrome Forecast
Issued by NWS

Home | Current Version | Previous Version | Text Only | Print | Product List | Glossary On
Versions: 1 2 3 4 5 6 7 8 9 10 11 12 13 14
000
FTUS46 KSGX 232300
TAFPSP
TAF
KPSP 232332Z 2400/2424 31012KT P6SM SCT250
     FM240100 32008KT P6SM FEW250
     FM240600 VRB04KT P6SM FEW250=

USA.gov is the U.S. government's official web portal to all federal, state and local government web resources and services.